KLAA

Details ICAO KLAA (LAA)
Name LAMAR MUNI
Region United States
Timezone America/Denver (UTC-7.0)
Plans Departing 0
Arriving 3
Stats Elevation 3,706 ft / 1,130 m (AMSL)
Location 38.070144° -102.688118°
Runways 2
Magnetic Variation 6.858° E
Sunrise 2017-12-18 14:03:13 UTC / 2017-12-18 07:03:13 Local
Sunset 2017-12-18 23:34:29 UTC / 2017-12-18 16:34:29 Local
Advertisement - Login to hide

Runways

ID Width Length Bearing (true) Bearing (mag) Surface Threshold Offset Overrun Length
08 60 ft / 18 m 4,990 ft / 1,521 m 89.63° 82.77° Asphalt 0 ft / 0 m 0 ft / 0 m
18 100 ft / 30 m 6,316 ft / 1,925 m 189.58° 182.72° Concrete 0 ft / 0 m 0 ft / 0 m
26 60 ft / 18 m 4,990 ft / 1,521 m 269.64° 262.78° Asphalt 0 ft / 0 m 0 ft / 0 m
36 100 ft / 30 m 6,316 ft / 1,925 m 9.58° 2.72° Concrete 0 ft / 0 m 0 ft / 0 m

Map

Weather


0- 5 10 15 20 25 30 35+ Temperature / ° C

Clouds and Precipitation
Forecast for 2017-12-18 12:00 UTC. Updated 19 minutes ago

Ground ~20,000 ft ~40,000 ft Winds

METAR

KLAA 180653Z AUTO 00000KT 10SM CLR M08/M10 A2998 RMK AO2 SLP171 I1000 T10781100 400721094

TAF

Not found

Frequencies

Recorded 135.62 MHz ASOS
Unicom 122.80 MHz CTAF/UNICOM
Warning: Do not use this data for real-world aviation or navigation. No guarantee of current accuracy is given.